sensor_id;sensor_type;location;lat;lon;timestamp;pressure;altitude;pressure_sealevel;temperature;humidity
12475;BME280;6302;42.624;23.334;2024-02-23T00:01:47;93001.03;;;6.30;100.00
12475;BME280;6302;42.624;23.334;2024-02-23T00:04:14;92987.53;;;6.31;100.00
12475;BME280;6302;42.624;23.334;2024-02-23T00:06:41;92995.03;;;6.26;100.00
12475;BME280;6302;42.624;23.334;2024-02-23T00:09:08;92992.41;;;6.26;100.00
12475;BME280;6302;42.624;23.334;2024-02-23T00:11:39;92987.88;;;6.26;100.00
12475;BME280;6302;42.624;23.334;2024-02-23T00:14:09;92998.41;;;6.26;100.00
12475;BME280;6302;42.624;23.334;2024-02-23T00:16:38;93005.56;;;6.29;100.00
12475;BME280;6302;42.624;23.334;2024-02-23T00:19:05;92996.53;;;6.30;100.00
12475;BME280;6302;42.624;23.334;2024-02-23T00:21:31;92999.53;;;6.32;100.00
12475;BME280;6302;42.624;23.334;2024-02-23T00:23:58;93001.75;;;6.20;100.00
12475;BME280;6302;42.624;23.334;2024-02-23T00:26:25;93000.97;;;6.09;100.00
12475;BME280;6302;42.624;23.334;2024-02-23T00:28:55;92997.22;;;6.06;100.00
12475;BME280;6302;42.624;23.334;2024-02-23T00:31:22;92991.19;;;6.06;100.00
12475;BME280;6302;42.624;23.334;2024-02-23T00:33:49;92892.44;;;5.36;100.00
12475;BME280;6302;42.624;23.334;2024-02-23T00:36:15;92988.19;;;6.11;100.00
12475;BME280;6302;42.624;23.334;2024-02-23T00:38:42;92993.81;;;6.06;100.00
12475;BME280;6302;42.624;23.334;2024-02-23T00:41:09;92988.19;;;6.04;100.00
12475;BME280;6302;42.624;23.334;2024-02-23T00:43:38;92970.53;;;6.04;100.00
12475;BME280;6302;42.624;23.334;2024-02-23T00:46:06;92972.78;;;6.06;100.00
12475;BME280;6302;42.624;23.334;2024-02-23T00:48:33;92973.94;;;6.12;100.00
12475;BME280;6302;42.624;23.334;2024-02-23T00:51:01;92982.19;;;6.07;100.00
12475;BME280;6302;42.624;23.334;2024-02-23T00:53:28;92971.66;;;6.07;100.00
12475;BME280;6302;42.624;23.334;2024-02-23T00:55:54;92961.13;;;6.10;100.00
12475;BME280;6302;42.624;23.334;2024-02-23T00:58:21;92955.50;;;6.08;100.00
12475;BME280;6302;42.624;23.334;2024-02-23T01:00:48;92966.41;;;6.14;100.00
12475;BME280;6302;42.624;23.334;2024-02-23T01:03:16;92965.69;;;6.20;100.00
12475;BME280;6302;42.624;23.334;2024-02-23T01:05:41;92946.88;;;6.15;100.00
12475;BME280;6302;42.624;23.334;2024-02-23T01:08:08;92962.69;;;6.25;100.00
12475;BME280;6302;42.624;23.334;2024-02-23T01:10:35;92952.16;;;6.22;100.00
12475;BME280;6302;42.624;23.334;2024-02-23T01:13:02;92961.56;;;6.30;100.00
12475;BME280;6302;42.624;23.334;2024-02-23T01:15:30;92952.91;;;6.26;100.00
12475;BME280;6302;42.624;23.334;2024-02-23T01:17:57;92948.41;;;6.23;100.00
12475;BME280;6302;42.624;23.334;2024-02-23T01:20:25;92956.66;;;6.25;100.00
12475;BME280;6302;42.624;23.334;2024-02-23T01:22:52;92965.69;;;6.24;100.00
12475;BME280;6302;42.624;23.334;2024-02-23T01:25:18;92953.66;;;6.23;100.00
12475;BME280;6302;42.624;23.334;2024-02-23T01:27:45;92956.66;;;6.25;100.00
12475;BME280;6302;42.624;23.334;2024-02-23T01:30:12;92959.66;;;6.20;100.00
12475;BME280;6302;42.624;23.334;2024-02-23T01:32:39;92947.28;;;6.17;100.00
12475;BME280;6302;42.624;23.334;2024-02-23T01:35:06;92939.38;;;6.17;100.00
12475;BME280;6302;42.624;23.334;2024-02-23T01:37:35;92948.41;;;6.23;100.00
12475;BME280;6302;42.624;23.334;2024-02-23T01:40:02;92950.69;;;6.24;100.00
12475;BME280;6302;42.624;23.334;2024-02-23T01:42:29;92947.28;;;6.24;100.00
12475;BME280;6302;42.624;23.334;2024-02-23T01:44:56;92940.88;;;6.18;100.00
12475;BME280;6302;42.624;23.334;2024-02-23T01:47:23;92928.44;;;6.15;100.00
12475;BME280;6302;42.624;23.334;2024-02-23T01:49:51;92935.63;;;6.21;100.00
12475;BME280;6302;42.624;23.334;2024-02-23T01:52:19;92938.25;;;6.14;100.00
12475;BME280;6302;42.624;23.334;2024-02-23T01:54:48;92933.72;;;6.11;100.00
12475;BME280;6302;42.624;23.334;2024-02-23T01:57:15;92904.75;;;6.08;100.00
12475;BME280;6302;42.624;23.334;2024-02-23T01:59:42;92910.03;;;6.11;100.00
12475;BME280;6302;42.624;23.334;2024-02-23T02:02:09;92911.16;;;6.10;100.00
12475;BME280;6302;42.624;23.334;2024-02-23T02:04:35;92907.41;;;6.11;100.00
12475;BME280;6302;42.624;23.334;2024-02-23T02:07:02;92908.53;;;6.14;100.00
12475;BME280;6302;42.624;23.334;2024-02-23T02:09:29;92922.47;;;6.14;100.00
12475;BME280;6302;42.624;23.334;2024-02-23T02:11:57;92902.88;;;6.08;100.00
12475;BME280;6302;42.624;23.334;2024-02-23T02:14:24;92920.19;;;6.13;100.00
12475;BME280;6302;42.624;23.334;2024-02-23T02:16:51;92911.56;;;6.12;100.00
12475;BME280;6302;42.624;23.334;2024-02-23T02:19:18;92911.91;;;6.11;100.00
12475;BME280;6302;42.624;23.334;2024-02-23T02:21:44;92914.19;;;6.12;100.00
12475;BME280;6302;42.624;23.334;2024-02-23T02:24:11;92911.56;;;6.12;100.00
12475;BME280;6302;42.624;23.334;2024-02-23T02:26:38;92918.34;;;6.17;100.00
12475;BME280;6302;42.624;23.334;2024-02-23T02:29:06;92919.47;;;6.19;100.00
12475;BME280;6302;42.624;23.334;2024-02-23T02:31:33;92924.34;;;6.21;100.00
12475;BME280;6302;42.624;23.334;2024-02-23T02:34:03;92925.88;;;6.22;100.00
12475;BME280;6302;42.624;23.334;2024-02-23T02:36:30;92934.13;;;6.24;100.00
12475;BME280;6302;42.624;23.334;2024-02-23T02:38:56;92936.38;;;6.22;100.00
12475;BME280;6302;42.624;23.334;2024-02-23T02:41:24;92931.09;;;6.18;100.00
12475;BME280;6302;42.624;23.334;2024-02-23T02:43:54;92928.84;;;6.17;100.00
12475;BME280;6302;42.624;23.334;2024-02-23T02:46:23;92914.56;;;6.14;100.00
12475;BME280;6302;42.624;23.334;2024-02-23T02:48:49;92917.94;;;6.11;100.00
12475;BME280;6302;42.624;23.334;2024-02-23T02:51:16;92926.94;;;6.07;100.00
12475;BME280;6302;42.624;23.334;2024-02-23T02:53:43;92926.56;;;6.05;100.00
12475;BME280;6302;42.624;23.334;2024-02-23T02:56:09;92919.81;;;6.07;100.00
12475;BME280;6302;42.624;23.334;2024-02-23T02:58:36;92915.28;;;6.15;100.00
12475;BME280;6302;42.624;23.334;2024-02-23T03:01:03;92917.94;;;6.11;100.00
12475;BME280;6302;42.624;23.334;2024-02-23T03:03:31;92926.19;;;6.06;100.00
12475;BME280;6302;42.624;23.334;2024-02-23T03:05:58;92919.81;;;6.07;100.00
12475;BME280;6302;42.624;23.334;2024-02-23T03:08:24;92924.31;;;6.07;100.00
12475;BME280;6302;42.624;23.334;2024-02-23T03:10:51;92924.31;;;6.07;100.00
12475;BME280;6302;42.624;23.334;2024-02-23T03:13:18;92937.09;;;6.05;100.00
12475;BME280;6302;42.624;23.334;2024-02-23T03:15:45;92931.03;;;6.01;100.00
12475;BME280;6302;42.624;23.334;2024-02-23T03:18:12;92928.06;;;6.02;100.00
12475;BME280;6302;42.624;23.334;2024-02-23T03:20:41;92935.56;;;6.04;100.00
12475;BME280;6302;42.624;23.334;2024-02-23T03:23:08;92930.31;;;6.04;100.00
12475;BME280;6302;42.624;23.334;2024-02-23T03:25:35;92906.97;;;5.88;100.00
12475;BME280;6302;42.624;23.334;2024-02-23T03:28:02;92930.69;;;6.06;100.00
12475;BME280;6302;42.624;23.334;2024-02-23T03:30:28;92923.94;;;6.05;100.00
12475;BME280;6302;42.624;23.334;2024-02-23T03:32:55;92931.13;;;6.22;100.00
12475;BME280;6302;42.624;23.334;2024-02-23T03:35:22;92933.34;;;6.20;100.00
12475;BME280;6302;42.624;23.334;2024-02-23T03:37:50;92932.97;;;6.18;100.00
12475;BME280;6302;42.624;23.334;2024-02-23T03:40:16;92926.59;;;6.19;100.00
12475;BME280;6302;42.624;23.334;2024-02-23T03:42:44;92931.09;;;6.18;100.00
12475;BME280;6302;42.624;23.334;2024-02-23T03:45:11;92937.13;;;6.19;100.00
12475;BME280;6302;42.624;23.334;2024-02-23T03:47:38;92885.56;;;5.93;100.00
12475;BME280;6302;42.624;23.334;2024-02-23T03:50:06;92920.59;;;6.18;100.00
12475;BME280;6302;42.624;23.334;2024-02-23T03:52:33;92923.22;;;6.18;100.00
12475;BME280;6302;42.624;23.334;2024-02-23T03:55:01;92893.84;;;5.99;100.00
12475;BME280;6302;42.624;23.334;2024-02-23T03:57:29;92934.50;;;6.19;100.00
12475;BME280;6302;42.624;23.334;2024-02-23T03:59:58;92930.00;;;6.19;100.00
12475;BME280;6302;42.624;23.334;2024-02-23T04:02:25;92914.94;;;6.20;100.00
12475;BME280;6302;42.624;23.334;2024-02-23T04:04:52;92924.34;;;6.28;100.00
12475;BME280;6302;42.624;23.334;2024-02-23T04:07:19;92930.00;;;6.30;100.00
12475;BME280;6302;42.624;23.334;2024-02-23T04:09:46;92921.34;;;6.26;100.00
12475;BME280;6302;42.624;23.334;2024-02-23T04:12:18;92938.66;;;6.34;100.00
12475;BME280;6302;42.624;23.334;2024-02-23T04:14:45;92923.63;;;6.31;100.00
12475;BME280;6302;42.624;23.334;2024-02-23T04:17:12;92937.88;;;6.19;100.00
12475;BME280;6302;42.624;23.334;2024-02-23T04:19:40;92937.84;;;6.16;100.00
12475;BME280;6302;42.624;23.334;2024-02-23T04:22:07;92931.06;;;6.15;100.00
12475;BME280;6302;42.624;23.334;2024-02-23T04:24:36;92934.09;;;6.20;100.00
12475;BME280;6302;42.624;23.334;2024-02-23T04:27:03;92926.59;;;6.12;100.00
12475;BME280;6302;42.624;23.334;2024-02-23T04:29:32;92930.69;;;6.06;100.00
12475;BME280;6302;42.624;23.334;2024-02-23T04:31:59;92927.66;;;5.97;100.00
12475;BME280;6302;42.624;23.334;2024-02-23T04:34:27;92915.91;;;5.76;100.00
12475;BME280;6302;42.624;23.334;2024-02-23T04:36:54;92937.41;;;5.89;100.00
12475;BME280;6302;42.624;23.334;2024-02-23T04:39:21;92932.84;;;5.82;100.00
12475;BME280;6302;42.624;23.334;2024-02-23T04:41:48;92941.09;;;5.77;100.00
12475;BME280;6302;42.624;23.334;2024-02-23T04:44:15;92943.69;;;5.74;100.00
12475;BME280;6302;42.624;23.334;2024-02-23T04:46:43;92939.56;;;5.69;100.00
12475;BME280;6302;42.624;23.334;2024-02-23T04:49:10;92938.03;;;5.68;100.00
12475;BME280;6302;42.624;23.334;2024-02-23T04:51:38;92912.81;;;5.50;100.00
12475;BME280;6302;42.624;23.334;2024-02-23T04:54:04;92899.97;;;5.41;100.00
12475;BME280;6302;42.624;23.334;2024-02-23T04:56:31;92932.41;;;5.63;100.00
12475;BME280;6302;42.624;23.334;2024-02-23T04:58:58;92938.00;;;5.61;100.00
12475;BME280;6302;42.624;23.334;2024-02-23T05:01:25;92936.09;;;5.58;100.00
12475;BME280;6302;42.624;23.334;2024-02-23T05:03:53;92938.38;;;5.63;100.00
12475;BME280;6302;42.624;23.334;2024-02-23T05:06:20;92944.00;;;5.65;100.00
12475;BME280;6302;42.624;23.334;2024-02-23T05:08:47;92941.81;;;5.67;100.00
12475;BME280;6302;42.624;23.334;2024-02-23T05:11:14;92949.69;;;5.67;100.00
12475;BME280;6302;42.624;23.334;2024-02-23T05:13:41;92924.00;;;5.43;100.00
12475;BME280;6302;42.624;23.334;2024-02-23T05:16:08;92962.38;;;5.58;100.00
12475;BME280;6302;42.624;23.334;2024-02-23T05:18:34;92963.88;;;5.56;100.00
12475;BME280;6302;42.624;23.334;2024-02-23T05:21:03;92954.84;;;5.50;100.00
12475;BME280;6302;42.624;23.334;2024-02-23T05:23:30;92964.25;;;5.54;100.00
12475;BME280;6302;42.624;23.334;2024-02-23T05:25:57;92969.13;;;5.56;100.00
12475;BME280;6302;42.624;23.334;2024-02-23T05:28:24;92972.13;;;5.54;100.00
12475;BME280;6302;42.624;23.334;2024-02-23T05:30:51;92977.41;;;5.54;100.00
12475;BME280;6302;42.624;23.334;2024-02-23T05:33:18;92969.88;;;5.56;100.00
12475;BME280;6302;42.624;23.334;2024-02-23T05:35:46;92971.41;;;5.57;100.00
12475;BME280;6302;42.624;23.334;2024-02-23T05:38:15;92972.56;;;5.60;100.00
12475;BME280;6302;42.624;23.334;2024-02-23T05:40:43;92960.09;;;5.50;100.00
12475;BME280;6302;42.624;23.334;2024-02-23T05:43:10;92972.53;;;5.56;100.00
12475;BME280;6302;42.624;23.334;2024-02-23T05:45:38;92971.44;;;5.64;100.00
12475;BME280;6302;42.624;23.334;2024-02-23T05:48:05;92963.16;;;5.59;100.00
12475;BME280;6302;42.624;23.334;2024-02-23T05:50:32;92977.81;;;5.63;100.00
12475;BME280;6302;42.624;23.334;2024-02-23T05:52:58;92986.53;;;5.74;100.00
12475;BME280;6302;42.624;23.334;2024-02-23T05:55:27;92990.63;;;5.75;100.00
12475;BME280;6302;42.624;23.334;2024-02-23T05:57:53;92979.38;;;5.75;100.00
12475;BME280;6302;42.624;23.334;2024-02-23T06:00:20;92988.03;;;5.79;100.00
12475;BME280;6302;42.624;23.334;2024-02-23T06:02:47;92985.84;;;5.84;100.00
12475;BME280;6302;42.624;23.334;2024-02-23T06:05:14;92996.78;;;5.94;100.00
12475;BME280;6302;42.624;23.334;2024-02-23T06:07:41;92995.69;;;6.02;100.00
12475;BME280;6302;42.624;23.334;2024-02-23T06:10:08;92999.47;;;6.11;100.00
12475;BME280;6302;42.624;23.334;2024-02-23T06:12:37;93009.28;;;6.21;100.00
12475;BME280;6302;42.624;23.334;2024-02-23T06:15:05;93000.31;;;6.29;100.00
12475;BME280;6302;42.624;23.334;2024-02-23T06:17:32;93004.09;;;6.39;100.00
12475;BME280;6302;42.624;23.334;2024-02-23T06:19:58;93019.19;;;6.56;100.00
12475;BME280;6302;42.624;23.334;2024-02-23T06:22:26;93006.72;;;6.49;100.00
12475;BME280;6302;42.624;23.334;2024-02-23T06:24:52;93022.56;;;6.53;100.00
12475;BME280;6302;42.624;23.334;2024-02-23T06:27:19;93008.63;;;6.49;100.00
12475;BME280;6302;42.624;23.334;2024-02-23T06:29:48;93011.28;;;6.56;100.00
12475;BME280;6302;42.624;23.334;2024-02-23T06:32:15;93025.22;;;6.74;100.00
12475;BME280;6302;42.624;23.334;2024-02-23T06:34:42;93019.22;;;6.84;100.00
12475;BME280;6302;42.624;23.334;2024-02-23T06:37:09;93013.97;;;6.91;100.00
12475;BME280;6302;42.624;23.334;2024-02-23T06:39:35;93018.84;;;6.96;100.00
12475;BME280;6302;42.624;23.334;2024-02-23T06:42:02;93026.03;;;7.06;100.00
12475;BME280;6302;42.624;23.334;2024-02-23T06:44:30;93021.50;;;7.21;100.00
12475;BME280;6302;42.624;23.334;2024-02-23T06:46:58;93024.53;;;7.19;100.00
12475;BME280;6302;42.624;23.334;2024-02-23T06:49:24;93022.28;;;7.25;100.00
12475;BME280;6302;42.624;23.334;2024-02-23T06:51:51;93021.50;;;7.32;100.00
12475;BME280;6302;42.624;23.334;2024-02-23T06:54:18;93030.56;;;7.45;100.00
12475;BME280;6302;42.624;23.334;2024-02-23T06:56:45;93026.41;;;7.51;100.00
12475;BME280;6302;42.624;23.334;2024-02-23T06:59:12;93020.00;;;7.59;100.00
12475;BME280;6302;42.624;23.334;2024-02-23T07:01:48;93024.13;;;7.67;100.00
12475;BME280;6302;42.624;23.334;2024-02-23T07:04:16;93021.88;;;7.72;100.00
12475;BME280;6302;42.624;23.334;2024-02-23T07:06:43;93030.47;;;7.91;100.00
12475;BME280;6302;42.624;23.334;2024-02-23T07:09:10;93027.47;;;7.92;100.00
12475;BME280;6302;42.624;23.334;2024-02-23T07:11:38;93031.97;;;8.02;100.00
12475;BME280;6302;42.624;23.334;2024-02-23T07:14:04;93023.66;;;8.07;100.00
12475;BME280;6302;42.624;23.334;2024-02-23T07:16:31;93031.94;;;8.27;100.00
12475;BME280;6302;42.624;23.334;2024-02-23T07:18:58;93036.41;;;8.30;100.00
12475;BME280;6302;42.624;23.334;2024-02-23T07:21:26;93036.38;;;8.44;100.00
12475;BME280;6302;42.624;23.334;2024-02-23T07:23:53;93030.31;;;8.50;100.00
12475;BME280;6302;42.624;23.334;2024-02-23T07:26:20;93028.06;;;8.45;100.00
12475;BME280;6302;42.624;23.334;2024-02-23T07:28:47;93023.59;;;8.35;100.00
12475;BME280;6302;42.624;23.334;2024-02-23T07:31:14;93020.94;;;8.35;100.00
12475;BME280;6302;42.624;23.334;2024-02-23T07:33:42;93026.19;;;8.42;100.00
12475;BME280;6302;42.624;23.334;2024-02-23T07:36:13;93010.81;;;8.27;100.00
12475;BME280;6302;42.624;23.334;2024-02-23T07:38:42;93016.78;;;8.41;100.00
12475;BME280;6302;42.624;23.334;2024-02-23T07:41:09;93030.41;;;8.29;100.00
12475;BME280;6302;42.624;23.334;2024-02-23T07:43:35;93034.19;;;8.28;100.00
12475;BME280;6302;42.624;23.334;2024-02-23T07:46:03;93017.53;;;8.38;100.00
12475;BME280;6302;42.624;23.334;2024-02-23T07:48:30;93007.78;;;8.21;100.00
12475;BME280;6302;42.624;23.334;2024-02-23T07:50:57;93022.81;;;8.38;100.00
12475;BME280;6302;42.624;23.334;2024-02-23T07:53:23;93021.31;;;8.41;100.00
12475;BME280;6302;42.624;23.334;2024-02-23T07:55:52;93022.44;;;8.40;100.00
12475;BME280;6302;42.624;23.334;2024-02-23T07:58:18;93016.81;;;8.20;100.00
12475;BME280;6302;42.624;23.334;2024-02-23T08:00:46;93031.19;;;8.26;100.00
12475;BME280;6302;42.624;23.334;2024-02-23T08:03:13;93017.53;;;8.38;100.00
12475;BME280;6302;42.624;23.334;2024-02-23T08:05:40;93016.75;;;8.48;100.00
12475;BME280;6302;42.624;23.334;2024-02-23T08:08:07;93023.13;;;8.55;100.00
12475;BME280;6302;42.624;23.334;2024-02-23T08:10:35;93014.38;;;8.65;100.00
12475;BME280;6302;42.624;23.334;2024-02-23T08:13:03;93022.97;;;8.83;100.00
12475;BME280;6302;42.624;23.334;2024-02-23T08:15:30;93019.16;;;8.91;100.00
12475;BME280;6302;42.624;23.334;2024-02-23T08:17:57;93027.75;;;9.02;100.00
12475;BME280;6302;42.624;23.334;2024-02-23T08:20:24;93030.50;;;8.88;100.00
12475;BME280;6302;42.624;23.334;2024-02-23T08:22:50;93017.19;;;9.02;100.00
12475;BME280;6302;42.624;23.334;2024-02-23T08:25:17;93010.44;;;8.97;100.00
12475;BME280;6302;42.624;23.334;2024-02-23T08:27:44;93017.59;;;8.97;100.00
12475;BME280;6302;42.624;23.334;2024-02-23T08:30:13;93005.50;;;8.99;100.00
12475;BME280;6302;42.624;23.334;2024-02-23T08:32:40;93014.13;;;9.07;100.00
12475;BME280;6302;42.624;23.334;2024-02-23T08:35:07;93016.03;;;9.06;100.00
12475;BME280;6302;42.624;23.334;2024-02-23T08:37:34;93014.09;;;9.14;100.00
12475;BME280;6302;42.624;23.334;2024-02-23T08:40:01;93011.03;;;9.19;100.00
12475;BME280;6302;42.624;23.334;2024-02-23T08:42:28;93010.69;;;9.13;100.00
12475;BME280;6302;42.624;23.334;2024-02-23T08:44:55;93014.00;;;9.25;100.00
12475;BME280;6302;42.624;23.334;2024-02-23T08:47:23;93005.75;;;9.19;100.00
12475;BME280;6302;42.624;23.334;2024-02-23T08:49:50;93023.06;;;9.24;100.00
12475;BME280;6302;42.624;23.334;2024-02-23T08:52:16;93020.81;;;9.22;100.00
12475;BME280;6302;42.624;23.334;2024-02-23T08:54:44;93028.34;;;9.31;100.00
12475;BME280;6302;42.624;23.334;2024-02-23T08:57:11;93032.44;;;9.35;100.00
12475;BME280;6302;42.624;23.334;2024-02-23T08:59:37;93014.22;;;9.44;100.00
12475;BME280;6302;42.624;23.334;2024-02-23T09:02:04;93013.31;;;9.61;100.00
12475;BME280;6302;42.624;23.334;2024-02-23T09:04:32;93009.41;;;9.76;100.00
12475;BME280;6302;42.624;23.334;2024-02-23T09:06:59;93011.56;;;9.89;100.00
12475;BME280;6302;42.624;23.334;2024-02-23T09:09:26;93016.28;;;10.08;100.00
12475;BME280;6302;42.624;23.334;2024-02-23T09:11:52;93019.53;;;10.26;100.00
12475;BME280;6302;42.624;23.334;2024-02-23T09:14:20;93023.06;;;10.46;100.00
12475;BME280;6302;42.624;23.334;2024-02-23T09:16:47;93024.84;;;10.56;100.00
12475;BME280;6302;42.624;23.334;2024-02-23T09:19:16;93018.66;;;10.66;100.00
12475;BME280;6302;42.624;23.334;2024-02-23T09:21:45;93022.53;;;10.88;100.00
12475;BME280;6302;42.624;23.334;2024-02-23T09:24:12;93028.78;;;11.01;100.00
12475;BME280;6302;42.624;23.334;2024-02-23T09:26:38;93022.69;;;11.04;100.00
12475;BME280;6302;42.624;23.334;2024-02-23T09:29:05;93015.41;;;11.08;100.00
12475;BME280;6302;42.624;23.334;2024-02-23T09:31:32;93017.28;;;11.11;100.00
12475;BME280;6302;42.624;23.334;2024-02-23T09:33:59;93014.59;;;11.38;100.00
12475;BME280;6302;42.624;23.334;2024-02-23T09:36:26;93013.75;;;11.45;99.67
12475;BME280;6302;42.624;23.334;2024-02-23T09:38:55;93016.81;;;11.66;100.00
12475;BME280;6302;42.624;23.334;2024-02-23T09:41:22;93017.75;;;11.80;99.51
12475;BME280;6302;42.624;23.334;2024-02-23T09:43:50;92996.66;;;11.72;98.77
12475;BME280;6302;42.624;23.334;2024-02-23T09:46:18;93018.41;;;12.07;98.75
12475;BME280;6302;42.624;23.334;2024-02-23T09:48:45;93021.72;;;12.34;93.96
12475;BME280;6302;42.624;23.334;2024-02-23T09:51:15;93020.16;;;12.36;90.40
12475;BME280;6302;42.624;23.334;2024-02-23T09:53:43;93011.94;;;12.47;87.55
12475;BME280;6302;42.624;23.334;2024-02-23T09:56:11;93002.00;;;12.51;86.71
12475;BME280;6302;42.624;23.334;2024-02-23T09:58:43;93005.06;;;12.50;88.32
12475;BME280;6302;42.624;23.334;2024-02-23T10:01:10;92999.69;;;12.53;84.19
12475;BME280;6302;42.624;23.334;2024-02-23T10:03:38;92984.66;;;12.47;84.15
12475;BME280;6302;42.624;23.334;2024-02-23T10:06:05;92981.91;;;12.50;87.04
12475;BME280;6302;42.624;23.334;2024-02-23T10:08:32;92981.47;;;12.71;86.09
12475;BME280;6302;42.624;23.334;2024-02-23T10:11:00;92989.75;;;12.93;83.69
12475;BME280;6302;42.624;23.334;2024-02-23T10:13:29;92981.91;;;12.86;81.94
12475;BME280;6302;42.624;23.334;2024-02-23T10:15:56;92992.88;;;12.88;81.08
12475;BME280;6302;42.624;23.334;2024-02-23T10:18:23;92984.69;;;12.98;79.49
12475;BME280;6302;42.624;23.334;2024-02-23T10:20:50;92984.25;;;13.00;79.69
12475;BME280;6302;42.624;23.334;2024-02-23T10:23:18;92984.91;;;12.88;81.12
12475;BME280;6302;42.624;23.334;2024-02-23T10:25:45;92985.25;;;12.90;80.73
12475;BME280;6302;42.624;23.334;2024-02-23T10:28:12;92972.09;;;12.83;80.84
12475;BME280;6302;42.624;23.334;2024-02-23T10:30:40;92974.91;;;12.76;80.67
12475;BME280;6302;42.624;23.334;2024-02-23T10:33:07;92969.25;;;12.74;79.40
12475;BME280;6302;42.624;23.334;2024-02-23T10:35:38;92955.28;;;12.70;77.55
12475;BME280;6302;42.624;23.334;2024-02-23T10:38:08;92947.78;;;12.65;77.56
12475;BME280;6302;42.624;23.334;2024-02-23T10:40:37;92951.31;;;12.78;78.99
12475;BME280;6302;42.624;23.334;2024-02-23T10:43:11;92956.75;;;12.90;77.73
12475;BME280;6302;42.624;23.334;2024-02-23T10:45:40;92953.50;;;12.99;77.56
12475;BME280;6302;42.624;23.334;2024-02-23T10:48:08;92954.69;;;12.98;77.26
12475;BME280;6302;42.624;23.334;2024-02-23T10:50:36;92957.78;;;13.13;73.96
12475;BME280;6302;42.624;23.334;2024-02-23T10:53:04;92949.47;;;13.27;73.19
12475;BME280;6302;42.624;23.334;2024-02-23T10:55:36;92942.91;;;13.15;69.68
12475;BME280;6302;42.624;23.334;2024-02-23T10:58:04;92937.91;;;13.17;72.63
12475;BME280;6302;42.624;23.334;2024-02-23T11:00:36;92938.00;;;13.30;72.35
12475;BME280;6302;42.624;23.334;2024-02-23T11:03:07;92937.91;;;13.33;71.36
12475;BME280;6302;42.624;23.334;2024-02-23T11:05:34;92930.94;;;13.23;75.46
12475;BME280;6302;42.624;23.334;2024-02-23T11:08:01;92932.69;;;13.30;76.89
12475;BME280;6302;42.624;23.334;2024-02-23T11:10:28;92932.44;;;13.40;75.22
12475;BME280;6302;42.624;23.334;2024-02-23T11:12:58;92928.50;;;13.45;72.01
12475;BME280;6302;42.624;23.334;2024-02-23T11:15:29;92928.66;;;13.54;69.06
12475;BME280;6302;42.624;23.334;2024-02-23T11:18:00;92922.59;;;13.37;70.72
12475;BME280;6302;42.624;23.334;2024-02-23T11:20:37;92926.16;;;13.47;70.08
12475;BME280;6302;42.624;23.334;2024-02-23T11:23:13;92926.03;;;13.38;72.01
12475;BME280;6302;42.624;23.334;2024-02-23T11:25:40;92913.69;;;13.44;70.11
12475;BME280;6302;42.624;23.334;2024-02-23T11:28:07;92917.56;;;13.55;68.90
12475;BME280;6302;42.624;23.334;2024-02-23T11:30:34;92914.59;;;13.53;71.22
12475;BME280;6302;42.624;23.334;2024-02-23T11:33:01;92916.00;;;13.58;73.08
12475;BME280;6302;42.624;23.334;2024-02-23T11:35:28;92898.78;;;13.62;65.41
12475;BME280;6302;42.624;23.334;2024-02-23T11:37:56;92897.41;;;13.70;64.17
12475;BME280;6302;42.624;23.334;2024-02-23T11:40:25;92901.34;;;13.66;63.91
12475;BME280;6302;42.624;23.334;2024-02-23T11:42:54;92901.53;;;13.59;64.41
12475;BME280;6302;42.624;23.334;2024-02-23T11:45:21;92899.50;;;13.63;66.79
12475;BME280;6302;42.624;23.334;2024-02-23T11:47:47;92897.34;;;13.74;67.09
12475;BME280;6302;42.624;23.334;2024-02-23T11:50:14;92893.22;;;13.86;64.74
12475;BME280;6302;42.624;23.334;2024-02-23T11:52:41;92894.00;;;13.99;66.23
12475;BME280;6302;42.624;23.334;2024-02-23T11:55:10;92879.72;;;14.05;63.85
12475;BME280;6302;42.624;23.334;2024-02-23T11:57:38;92873.91;;;14.23;61.85
12475;BME280;6302;42.624;23.334;2024-02-23T12:00:06;92888.28;;;14.42;62.85
12475;BME280;6302;42.624;23.334;2024-02-23T12:02:35;92886.34;;;14.55;61.85
12475;BME280;6302;42.624;23.334;2024-02-23T12:05:02;92879.72;;;14.59;62.99
12475;BME280;6302;42.624;23.334;2024-02-23T12:07:29;92874.41;;;14.59;61.92
12475;BME280;6302;42.624;23.334;2024-02-23T12:09:56;92877.19;;;14.68;62.81
12475;BME280;6302;42.624;23.334;2024-02-23T12:12:25;92874.28;;;14.88;57.90
12475;BME280;6302;42.624;23.334;2024-02-23T12:14:52;92863.72;;;14.84;58.05
12475;BME280;6302;42.624;23.334;2024-02-23T12:17:19;92870.13;;;14.99;56.90
12475;BME280;6302;42.624;23.334;2024-02-23T12:19:46;92866.81;;;14.95;57.96
12475;BME280;6302;42.624;23.334;2024-02-23T12:22:12;92865.63;;;14.96;59.71
12475;BME280;6302;42.624;23.334;2024-02-23T12:24:41;92860.28;;;14.96;58.82
12475;BME280;6302;42.624;23.334;2024-02-23T12:27:07;92853.56;;;15.05;59.67
12475;BME280;6302;42.624;23.334;2024-02-23T12:29:36;92847.44;;;15.29;56.91
12475;BME280;6302;42.624;23.334;2024-02-23T12:32:03;92843.75;;;15.36;58.65
12475;BME280;6302;42.624;23.334;2024-02-23T12:34:30;92850.81;;;15.42;54.59
12475;BME280;6302;42.624;23.334;2024-02-23T12:36:57;92842.03;;;15.42;52.99
12475;BME280;6302;42.624;23.334;2024-02-23T12:39:24;92846.31;;;15.52;53.68
12475;BME280;6302;42.624;23.334;2024-02-23T12:41:52;92840.63;;;15.63;54.46
12475;BME280;6302;42.624;23.334;2024-02-23T12:44:18;92835.78;;;15.70;53.49
12475;BME280;6302;42.624;23.334;2024-02-23T12:46:46;92833.91;;;15.80;52.70
12475;BME280;6302;42.624;23.334;2024-02-23T12:49:13;92824.84;;;15.77;54.99
12475;BME280;6302;42.624;23.334;2024-02-23T12:51:41;92814.41;;;15.70;56.05
12475;BME280;6302;42.624;23.334;2024-02-23T12:54:08;92812.66;;;15.76;55.15
12475;BME280;6302;42.624;23.334;2024-02-23T12:56:35;92818.75;;;15.77;54.58
12475;BME280;6302;42.624;23.334;2024-02-23T12:59:02;92824.16;;;15.86;54.12
12475;BME280;6302;42.624;23.334;2024-02-23T13:01:28;92829.06;;;15.87;54.30